Time;durP1;ratioP1;P1;durP2;ratioP2;P2;SDS_P1;SDS_P2;PMS_P1;PMS_P2;Temp;Humidity;BMP_temperature;BMP_pressure;BME280_temperature;BME280_humidity;BME280_pressure;Samples;Min_cycle;Max_cycle;Signal;HPM_P1;HPM_P2
2023/08/11 00:01:01;;;;;;;6.13;3.22;;;;;;;18.92;66.88;101785.72;10511293;28;20032;-77
2023/08/11 00:06:07;;;;;;;5.80;3.10;;;;;;;18.50;67.85;101786.78;10528961;28;20036;-77
2023/08/11 00:11:11;;;;;;;4.47;2.72;;;;;;;18.41;68.55;101785.84;10528820;28;20044;-77
2023/08/11 00:16:13;;;;;;;6.43;3.60;;;;;;;18.27;68.50;101794.16;10539128;28;20048;-77
2023/08/11 00:21:16;;;;;;;5.35;3.40;;;;;;;18.57;67.67;101781.63;10528037;28;20041;-77
2023/08/11 00:26:19;;;;;;;6.05;3.70;;;;;;;18.14;69.17;101784.66;10528506;28;20040;-77
2023/08/11 00:31:21;;;;;;;6.68;3.75;;;;;;;18.46;68.50;101781.03;10528636;28;20055;-77
2023/08/11 00:36:24;;;;;;;5.70;3.15;;;;;;;18.23;68.47;101776.47;10528220;28;20406;-77
2023/08/11 00:41:27;;;;;;;5.90;3.05;;;;;;;18.00;68.76;101769.88;10527987;28;20040;-77
2023/08/11 00:46:29;;;;;;;4.60;2.72;;;;;;;18.11;67.97;101765.00;10493419;28;20044;-77
2023/08/11 00:51:31;;;;;;;4.15;2.67;;;;;;;17.93;68.36;101772.25;10527056;28;20052;-77
2023/08/11 00:56:34;;;;;;;4.30;2.63;;;;;;;17.85;68.36;101770.13;10527612;28;20048;-77
2023/08/11 01:01:36;;;;;;;5.03;2.75;;;;;;;17.66;69.21;101770.13;10509416;28;20514;-77
2023/08/11 01:06:45;;;;;;;6.35;3.45;;;;;;;17.60;69.23;101774.13;10493079;28;20123;-77
2023/08/11 01:12:21;;;;;;;8.23;3.78;;;;;;;17.75;68.49;101777.53;10527667;28;20059;-77
2023/08/11 01:17:24;;;;;;;8.88;3.78;;;;;;;17.87;67.88;101770.66;10527159;28;20045;-77
2023/08/11 01:22:28;;;;;;;4.95;2.97;;;;;;;18.35;66.58;101779.56;10493350;28;20057;-77
2023/08/11 01:27:31;;;;;;;7.03;3.25;;;;;;;18.46;65.47;101769.91;10508956;28;20045;-77
2023/08/11 01:32:33;;;;;;;8.70;4.40;;;;;;;18.32;65.56;101772.66;10476285;28;20052;-77
2023/08/11 01:37:36;;;;;;;5.43;3.85;;;;;;;17.63;67.28;101773.50;10526747;28;20040;-77
2023/08/11 01:42:42;;;;;;;5.43;3.78;;;;;;;17.47;68.32;101773.75;10509483;28;20040;-76
2023/08/11 01:47:46;;;;;;;7.33;3.87;;;;;;;17.44;67.62;101770.75;10508646;28;20048;-76
2023/08/11 01:52:48;;;;;;;7.45;3.88;;;;;;;17.34;68.14;101768.94;10526462;28;20438;-76
2023/08/11 01:57:51;;;;;;;4.80;3.65;;;;;;;17.16;68.84;101781.66;10512088;28;20443;-76
2023/08/11 02:02:53;;;;;;;6.15;4.30;;;;;;;17.02;68.16;101778.00;10494266;28;20044;-78
2023/08/11 02:07:55;;;;;;;6.40;3.78;;;;;;;16.88;68.18;101768.72;10482862;28;20047;-77
2023/08/11 02:12:58;;;;;;;6.30;4.03;;;;;;;16.89;67.82;101759.28;10535663;28;20538;-77
2023/08/11 02:18:00;;;;;;;5.50;3.22;;;;;;;16.88;67.78;101758.47;10515789;28;20037;-77
2023/08/11 02:23:03;;;;;;;5.28;3.65;;;;;;;16.99;66.57;101752.78;10515246;28;20036;-77
2023/08/11 02:28:07;;;;;;;6.68;4.22;;;;;;;17.28;64.89;101755.44;10532999;28;20059;-77
2023/08/11 02:33:09;;;;;;;8.23;4.13;;;;;;;17.31;64.58;101755.66;10532664;28;20048;-77
2023/08/11 02:38:13;;;;;;;8.32;3.97;;;;;;;17.57;63.91;101758.06;10498059;28;20067;-77
2023/08/11 02:43:17;;;;;;;5.45;3.45;;;;;;;17.52;63.70;101761.72;10498423;28;20045;-77
2023/08/11 02:48:19;;;;;;;4.93;3.58;;;;;;;17.52;63.50;101756.19;10514569;28;20044;-77
2023/08/11 02:53:21;;;;;;;6.00;3.78;;;;;;;17.71;62.43;101745.13;10513616;28;20072;-78
2023/08/11 02:58:23;;;;;;;7.10;4.07;;;;;;;17.64;62.67;101758.50;10497426;28;20045;-77
2023/08/11 03:03:26;;;;;;;6.72;3.78;;;;;;;17.83;62.00;101761.28;10506649;28;20041;-77
2023/08/11 03:08:28;;;;;;;7.82;3.67;;;;;;;18.52;59.57;101765.06;10472241;28;20562;-78
2023/08/11 03:13:31;;;;;;;5.60;3.58;;;;;;;18.81;58.57;101760.06;10455193;28;20053;-77
2023/08/11 03:18:33;;;;;;;5.22;3.33;;;;;;;19.30;57.88;101766.81;10487255;28;20521;-77
2023/08/11 03:23:37;;;;;;;5.88;3.10;;;;;;;19.09;57.17;101768.38;10432565;28;20041;-77
2023/08/11 03:28:41;;;;;;;5.63;4.20;;;;;;;19.34;56.78;101772.56;10471337;28;20099;-78
2023/08/11 03:33:44;;;;;;;6.22;4.07;;;;;;;18.94;57.46;101770.38;10453518;28;20053;-77
2023/08/11 03:38:49;;;;;;;8.77;4.40;;;;;;;18.32;59.53;101775.44;10454473;28;20041;-78
2023/08/11 03:43:51;;;;;;;5.97;3.72;;;;;;;18.58;59.07;101777.75;10488457;28;20041;-78
2023/08/11 03:48:53;;;;;;;5.72;3.80;;;;;;;18.90;58.41;101758.19;10470553;28;20033;-77
2023/08/11 03:53:58;;;;;;;6.43;4.15;;;;;;;19.35;57.85;101758.34;10470343;28;20055;-78
2023/08/11 03:59:01;;;;;;;5.00;3.90;;;;;;;20.50;54.53;101757.75;10504871;28;20055;-78
2023/08/11 04:04:04;;;;;;;7.63;3.92;;;;;;;20.96;53.05;101759.19;10511321;28;20063;-78
2023/08/11 04:09:06;;;;;;;6.90;3.95;;;;;;;21.70;52.10;101766.75;10511019;28;20052;-78
2023/08/11 04:14:09;;;;;;;7.53;3.83;;;;;;;21.78;50.74;101769.50;10494626;28;20067;-78
2023/08/11 04:19:11;;;;;;;5.70;3.83;;;;;;;23.42;47.91;101762.47;10486543;28;20037;-77
2023/08/11 04:24:15;;;;;;;9.05;3.85;;;;;;;23.62;46.90;101749.69;10468440;28;20491;-77
2023/08/11 04:29:18;;;;;;;6.45;3.45;;;;;;;23.87;46.45;101745.00;10487270;28;20075;-77
2023/08/11 04:34:21;;;;;;;7.50;4.63;;;;;;;22.85;48.95;101743.44;10468906;28;20063;-77
2023/08/11 04:39:24;;;;;;;6.43;3.97;;;;;;;23.59;47.46;101728.75;10468392;28;20040;-77
2023/08/11 04:44:27;;;;;;;4.40;3.80;;;;;;;23.44;47.65;101723.78;10469055;28;20041;-76
2023/08/11 04:49:29;;;;;;;5.93;4.00;;;;;;;24.24;46.99;101729.91;10452088;28;20040;-76
2023/08/11 04:54:31;;;;;;;11.43;4.55;;;;;;;24.41;46.39;101726.13;10468227;28;20045;-76
2023/08/11 04:59:33;;;;;;;7.03;3.90;;;;;;;24.86;44.67;101731.63;10493973;28;20049;-77
2023/08/11 05:04:36;;;;;;;6.60;4.50;;;;;;;25.62;43.89;101721.53;10444304;28;20049;-78
2023/08/11 05:09:38;;;;;;;5.32;3.80;;;;;;;25.74;43.80;101726.34;10444218;28;20643;-78
2023/08/11 05:14:40;;;;;;;6.35;4.13;;;;;;;25.90;42.50;101717.94;10444911;28;20049;-78
2023/08/11 05:19:42;;;;;;;7.30;4.03;;;;;;;25.79;43.51;101728.88;10444920;28;20086;-78
2023/08/11 05:24:44;;;;;;;6.05;4.10;;;;;;;24.84;46.21;101728.38;10467584;28;20052;-78
2023/08/11 05:29:48;;;;;;;6.28;4.32;;;;;;;25.22;44.50;101724.34;10485189;28;20644;-77
2023/08/11 05:34:50;;;;;;;6.32;3.75;;;;;;;25.18;45.27;101717.81;10486247;28;20483;-78
2023/08/11 05:39:53;;;;;;;8.48;4.03;;;;;;;26.15;44.10;101719.41;10492591;28;20055;-78
2023/08/11 05:44:55;;;;;;;7.38;3.78;;;;;;;26.56;43.26;101722.94;10493996;28;20049;-78
2023/08/11 05:49:57;;;;;;;6.45;3.78;;;;;;;25.78;44.26;101716.00;10493122;28;20048;-78
2023/08/11 05:55:00;;;;;;;7.40;4.45;;;;;;;26.04;44.17;101709.91;10495374;28;20052;-78
2023/08/11 06:00:04;;;;;;;9.07;4.10;;;;;;;27.27;41.99;101708.56;10516543;28;20055;-78
2023/08/11 06:05:15;;;;;;;6.28;4.30;;;;;;;26.57;43.32;101707.69;10533956;28;20043;-78
2023/08/11 06:10:17;;;;;;;7.30;3.78;;;;;;;27.34;42.09;101700.25;10515682;28;20056;-78
2023/08/11 06:15:19;;;;;;;6.47;3.53;;;;;;;27.95;40.07;101700.69;10518119;28;20063;-78
2023/08/11 06:20:22;;;;;;;6.82;3.70;;;;;;;27.72;39.99;101706.28;10532596;28;20045;-78
2023/08/11 06:25:24;;;;;;;7.95;3.25;;;;;;;28.27;39.49;101719.03;10533032;28;20040;-79
2023/08/11 06:30:28;;;;;;;5.55;3.40;;;;;;;28.67;38.41;101723.34;10532848;28;20037;-77
2023/08/11 06:35:31;;;;;;;7.07;3.03;;;;;;;27.86;39.69;101732.75;10532669;28;20040;-78
2023/08/11 06:40:34;;;;;;;4.82;2.45;;;;;;;28.79;37.97;101725.97;10532318;28;20067;-78
2023/08/11 06:45:37;;;;;;;4.03;2.38;;;;;;;29.01;37.03;101727.16;10532179;28;20056;-78
2023/08/11 06:50:39;;;;;;;6.70;2.70;;;;;;;29.82;36.10;101729.44;10513869;28;20518;-78
2023/08/11 06:55:41;;;;;;;5.10;2.67;;;;;;;30.15;35.65;101735.09;10513999;28;20056;-78
2023/08/11 07:00:44;;;;;;;5.07;3.65;;;;;;;30.13;35.69;101740.34;10531775;28;20036;-78
2023/08/11 07:05:51;;;;;;;8.60;2.70;;;;;;;29.54;36.33;101727.91;10531730;28;20135;-78
2023/08/11 07:10:53;;;;;;;5.82;2.38;;;;;;;29.54;35.57;101727.91;10514015;28;20510;-79
2023/08/11 07:15:56;;;;;;;5.63;2.47;;;;;;;29.06;36.60;101726.81;10530487;28;20048;-78
2023/08/11 07:20:58;;;;;;;6.53;2.40;;;;;;;28.35;37.88;101725.63;10496978;28;20136;-78
2023/08/11 07:26:01;;;;;;;3.45;1.80;;;;;;;28.48;36.84;101722.25;10447939;28;20392;-78
2023/08/11 07:31:03;;;;;;;3.72;2.13;;;;;;;28.68;36.06;101725.81;10447957;28;20041;-78
2023/08/11 07:36:06;;;;;;;5.20;2.22;;;;;;;28.45;36.55;101728.63;10429749;28;20041;-78
2023/08/11 07:41:08;;;;;;;2.25;1.90;;;;;;;28.36;35.92;101733.72;10447137;28;20044;-78
2023/08/11 07:46:10;;;;;;;3.13;2.13;;;;;;;28.50;36.37;101736.81;10447481;28;20054;-78
2023/08/11 07:51:14;;;;;;;3.40;2.15;;;;;;;28.47;35.13;101737.56;10456941;28;20053;-78
2023/08/11 07:56:16;;;;;;;3.13;2.22;;;;;;;28.68;34.42;101751.22;10466893;28;20063;-78
2023/08/11 08:01:19;;;;;;;4.97;2.33;;;;;;;29.00;33.66;101737.66;10528748;28;20032;-78
2023/08/11 08:06:21;;;;;;;4.72;2.25;;;;;;;28.58;34.06;101754.66;10528900;28;20045;-78
2023/08/11 08:11:23;;;;;;;7.80;1.95;;;;;;;29.06;33.05;101743.78;10528674;28;20056;-78
2023/08/11 08:16:25;;;;;;;2.80;1.88;;;;;;;28.35;34.03;101751.84;10530099;28;20041;-78
2023/08/11 08:21:27;;;;;;;3.33;2.03;;;;;;;28.38;33.96;101748.28;10510604;28;20561;-77
2023/08/11 08:26:30;;;;;;;5.95;1.90;;;;;;;26.28;36.05;101756.75;10511098;28;20044;-77
2023/08/11 08:31:32;;;;;;;3.72;1.95;;;;;;;26.24;37.60;101756.66;10528001;28;20047;-78
2023/08/11 08:36:34;;;;;;;3.40;2.10;;;;;;;25.82;37.10;101759.91;10527833;28;20055;-77
2023/08/11 08:41:38;;;;;;;3.15;2.25;;;;;;;25.82;37.43;101761.91;10527872;28;20040;-77
2023/08/11 08:46:40;;;;;;;3.78;2.20;;;;;;;27.07;35.71;101763.22;10548648;28;20556;-78
2023/08/11 08:51:43;;;;;;;2.10;1.58;;;;;;;26.30;36.32;101749.56;10535404;28;20378;-78
2023/08/11 08:56:45;;;;;;;3.53;1.77;;;;;;;27.23;34.49;101760.38;10569189;28;20502;-77
2023/08/11 09:01:48;;;;;;;1.80;1.70;;;;;;;27.28;34.38;101755.28;10569125;28;20055;-78
2023/08/11 09:06:51;;;;;;;2.83;1.58;;;;;;;28.40;33.09;101742.25;10494775;28;20044;-77
2023/08/11 09:11:54;;;;;;;2.78;1.60;;;;;;;29.27;32.21;101760.22;10530741;28;20045;-77
2023/08/11 09:16:58;;;;;;;2.13;1.50;;;;;;;29.91;30.66;101753.41;10536463;28;20051;-77
2023/08/11 09:22:00;;;;;;;2.22;1.55;;;;;;;31.19;29.81;101754.63;10535653;28;20043;-77
2023/08/11 09:27:03;;;;;;;2.85;1.60;;;;;;;29.04;31.62;101743.34;10535395;28;20036;-77
2023/08/11 09:32:06;;;;;;;3.08;1.60;;;;;;;27.94;32.29;101747.81;10535259;28;20041;-77
2023/08/11 09:37:08;;;;;;;3.65;1.77;;;;;;;26.27;35.01;101738.22;10535095;28;20047;-78
2023/08/11 09:42:14;;;;;;;2.35;1.40;;;;;;;26.47;34.38;101740.00;10533700;28;20040;-78
2023/08/11 09:47:16;;;;;;;;;;;;;;;26.09;35.52;101735.75;10534254;28;20052;-78
2023/08/11 09:52:19;;;;;;;2.78;1.40;;;;;;;26.24;35.06;101736.16;10532997;28;19920;-77
2023/08/11 09:57:22;;;;;;;3.25;1.30;;;;;;;26.37;34.46;101724.44;10554941;28;20063;-78
2023/08/11 10:02:28;;;;;;;2.00;1.50;;;;;;;25.85;34.43;101719.81;10557929;28;20062;-77
2023/08/11 10:07:39;;;;;;;;;;;;;;;26.33;32.04;101731.97;10558350;28;20043;-77
2023/08/11 10:12:55;;;;;;;3.05;1.50;;;;;;;26.17;33.74;101733.94;10557514;28;19919;-77
2023/08/11 10:17:58;;;;;;;4.40;1.60;;;;;;;26.44;33.83;101733.09;10547201;28;20056;-77
2023/08/11 10:23:01;;;;;;;1.60;1.15;;;;;;;25.67;35.01;101723.25;10513148;28;20075;-77
2023/08/11 10:28:07;;;;;;;2.00;1.70;;;;;;;25.57;35.25;101709.75;10532754;28;20041;-77
2023/08/11 10:33:09;;;;;;;2.55;1.58;;;;;;;26.14;34.54;101707.34;10514856;28;20091;-77
2023/08/11 10:38:12;;;;;;;3.00;1.48;;;;;;;26.26;34.27;101706.47;10514519;28;20048;-78
2023/08/11 10:43:17;;;;;;;2.42;1.67;;;;;;;26.41;34.14;101694.44;10514305;28;20055;-77
2023/08/11 10:48:22;;;;;;;1.73;1.30;;;;;;;26.36;34.27;101714.38;10514453;28;20048;-78
2023/08/11 10:53:24;;;;;;;2.60;1.70;;;;;;;25.88;34.95;101709.03;10545982;28;20071;-77
2023/08/11 10:58:30;;;;;;;2.15;1.52;;;;;;;25.85;35.40;101710.56;10573682;28;20498;-78
2023/08/11 11:03:32;;;;;;;2.42;1.38;;;;;;;25.80;36.13;101703.22;10573478;28;20050;-77
2023/08/11 11:08:35;;;;;;;1.65;1.40;;;;;;;25.68;35.80;101689.19;10538416;28;20048;-78
2023/08/11 11:13:37;;;;;;;2.63;1.50;;;;;;;25.78;36.31;101688.69;10573174;28;20051;-78
2023/08/11 11:18:42;;;;;;;1.77;1.60;;;;;;;25.62;36.17;101690.63;10536577;28;20057;-78
2023/08/11 11:23:46;;;;;;;2.08;1.50;;;;;;;25.51;37.72;101681.03;10530542;28;20044;-79
2023/08/11 11:28:49;;;;;;;2.38;1.52;;;;;;;25.86;36.86;101681.28;10513085;28;20059;-78
2023/08/11 11:33:52;;;;;;;2.28;1.70;;;;;;;25.59;36.30;101687.72;10511705;28;20060;-76
2023/08/11 11:38:54;;;;;;;4.05;1.95;;;;;;;25.57;37.18;101684.44;10530064;28;20528;-78
2023/08/11 11:43:56;;;;;;;2.35;1.80;;;;;;;25.50;36.57;101691.47;10512112;28;20400;-78
2023/08/11 11:48:58;;;;;;;2.13;1.48;;;;;;;25.51;35.86;101673.47;10530625;28;20044;-78
2023/08/11 11:54:00;;;;;;;2.30;1.30;;;;;;;25.74;35.02;101670.91;10494770;28;20056;-78
2023/08/11 11:59:03;;;;;;;3.15;1.70;;;;;;;25.95;35.59;101662.22;10527958;28;20047;-78
2023/08/11 12:04:05;;;;;;;1.90;1.40;;;;;;;25.72;36.58;101664.84;10494631;28;20047;-78
2023/08/11 12:09:11;;;;;;;1.98;1.30;;;;;;;25.47;35.92;101655.66;10528793;28;20044;-78
2023/08/11 12:14:16;;;;;;;;;;;;;;;25.50;36.09;101649.31;10512420;28;20055;-78
2023/08/11 12:19:18;;;;;;;2.20;1.40;;;;;;;25.30;36.64;101650.34;10511053;28;20405;-78
2023/08/11 12:24:21;;;;;;;2.15;1.50;;;;;;;25.35;36.39;101640.88;10528282;28;20415;-78
2023/08/11 12:29:23;;;;;;;1.75;1.58;;;;;;;25.04;37.07;101644.34;10527960;28;20048;-78
2023/08/11 12:34:25;;;;;;;2.53;1.55;;;;;;;25.22;36.68;101620.41;10511451;28;20052;-77
2023/08/11 12:39:29;;;;;;;2.72;1.40;;;;;;;25.58;36.58;101624.25;10516569;28;20044;-77
2023/08/11 12:44:31;;;;;;;4.20;1.70;;;;;;;25.41;35.77;101617.75;10531047;28;20051;-77
2023/08/11 12:49:33;;;;;;;3.28;1.55;;;;;;;25.39;36.96;101606.06;10526513;28;20043;-77
2023/08/11 12:54:35;;;;;;;2.85;2.00;;;;;;;25.39;37.74;101597.63;10530673;28;20048;-77
2023/08/11 12:59:37;;;;;;;2.85;1.80;;;;;;;25.02;37.14;101604.56;10527890;28;20068;-77
2023/08/11 13:04:39;;;;;;;2.28;1.80;;;;;;;24.70;37.87;101598.78;10556542;28;20059;-77
2023/08/11 13:09:41;;;;;;;2.53;1.45;;;;;;;24.72;38.41;101587.19;10569292;28;20039;-77
2023/08/11 13:14:44;;;;;;;3.88;1.52;;;;;;;24.89;37.34;101607.38;10569510;28;20044;-77
2023/08/11 13:19:46;;;;;;;2.13;1.85;;;;;;;24.89;37.95;101586.91;10534876;28;20040;-77
2023/08/11 13:24:48;;;;;;;2.65;1.50;;;;;;;24.82;37.72;101578.25;10568935;28;20438;-77
2023/08/11 13:29:50;;;;;;;1.58;1.40;;;;;;;24.96;38.29;101584.31;10550980;28;20059;-77
2023/08/11 13:34:52;;;;;;;3.28;1.75;;;;;;;24.61;38.23;101581.25;10568305;28;20070;-77
2023/08/11 13:39:54;;;;;;;2.17;1.50;;;;;;;24.65;38.90;101563.38;10568477;28;20502;-76
2023/08/11 13:44:57;;;;;;;6.35;1.30;;;;;;;24.88;38.82;101560.00;10533686;28;20123;-77
2023/08/11 13:49:59;;;;;;;4.07;1.80;;;;;;;24.78;39.32;101566.13;10568893;28;20044;-77
2023/08/11 13:55:03;;;;;;;1.50;1.38;;;;;;;24.60;39.80;101571.19;10549873;28;20067;-77
2023/08/11 14:00:11;;;;;;;1.77;1.58;;;;;;;24.47;41.25;101561.16;10573860;28;20406;-77
2023/08/11 14:05:14;;;;;;;2.85;2.00;;;;;;;24.70;41.28;101553.88;10558703;28;20040;-78
2023/08/11 14:10:16;;;;;;;3.47;2.10;;;;;;;24.37;42.05;101570.88;10575332;28;20426;-78
2023/08/11 14:15:19;;;;;;;3.72;2.25;;;;;;;24.00;43.43;101582.06;10557495;28;20047;-78
2023/08/11 14:20:21;;;;;;;5.63;1.80;;;;;;;24.25;43.75;101577.28;10576121;28;20067;-77
2023/08/11 14:25:23;;;;;;;5.53;2.50;;;;;;;23.93;43.79;101569.78;10575108;28;20055;-78
2023/08/11 14:30:25;;;;;;;5.43;2.13;;;;;;;23.73;44.02;101560.31;10574004;28;20056;-78
2023/08/11 14:35:28;;;;;;;2.90;1.58;;;;;;;23.65;44.57;101564.88;10546640;28;20052;-77
2023/08/11 14:40:30;;;;;;;4.15;1.90;;;;;;;23.69;45.14;101571.41;10532591;28;20406;-78
2023/08/11 14:45:32;;;;;;;4.47;2.08;;;;;;;23.56;44.94;101561.31;10532516;28;20044;-78
2023/08/11 14:50:34;;;;;;;2.47;2.22;;;;;;;23.64;44.57;101560.44;10532827;28;20064;-78
2023/08/11 14:55:36;;;;;;;3.88;2.20;;;;;;;23.57;45.43;101557.38;10532214;28;20518;-78
2023/08/11 15:00:39;;;;;;;4.30;1.70;;;;;;;23.71;45.04;101557.03;10514011;28;20039;-78
2023/08/11 15:05:42;;;;;;;2.33;2.00;;;;;;;23.94;45.23;101560.22;10534875;28;20045;-78
2023/08/11 15:10:44;;;;;;;2.47;1.65;;;;;;;23.84;45.48;101561.50;10530713;28;20047;-78
2023/08/11 15:15:47;;;;;;;2.95;2.22;;;;;;;23.47;46.26;101552.19;10513886;28;20074;-78
2023/08/11 15:20:49;;;;;;;2.15;1.95;;;;;;;23.48;45.34;101551.03;10513422;28;20659;-77
2023/08/11 15:25:51;;;;;;;5.90;2.72;;;;;;;23.55;45.52;101551.25;10529501;28;20044;-78
2023/08/11 15:30:55;;;;;;;3.58;2.40;;;;;;;23.38;46.11;101560.66;10513033;28;20415;-78
2023/08/11 15:35:57;;;;;;;3.17;1.90;;;;;;;23.28;46.43;101560.31;10530153;28;20072;-77
2023/08/11 15:41:00;;;;;;;3.70;2.20;;;;;;;23.45;45.57;101546.94;10530395;28;20521;-78
2023/08/11 15:46:03;;;;;;;4.85;2.50;;;;;;;23.38;45.22;101548.66;10530194;28;20445;-78
2023/08/11 15:51:05;;;;;;;6.72;1.77;;;;;;;23.14;45.94;101550.22;10530684;28;20044;-78
2023/08/11 15:56:07;;;;;;;2.85;2.03;;;;;;;23.12;46.50;101548.94;10511736;28;20075;-78
2023/08/11 16:01:10;;;;;;;3.30;2.03;;;;;;;23.18;45.56;101547.53;10529965;28;20040;-78
2023/08/11 16:06:12;;;;;;;4.13;2.70;;;;;;;23.25;45.89;101535.75;10511247;28;20040;-78
2023/08/11 16:11:14;;;;;;;5.82;2.22;;;;;;;22.99;46.69;101548.06;10528442;28;20384;-77
2023/08/11 16:16:16;;;;;;;3.08;2.03;;;;;;;23.16;45.10;101541.47;10510425;28;20040;-78
2023/08/11 16:21:19;;;;;;;3.17;2.10;;;;;;;22.96;46.10;101536.72;10527160;28;20072;-77
2023/08/11 16:26:21;;;;;;;2.42;1.75;;;;;;;22.93;45.32;101527.03;10510667;28;20040;-78
2023/08/11 16:31:23;;;;;;;4.10;2.20;;;;;;;22.89;46.16;101528.88;10510481;28;20044;-79
2023/08/11 16:36:27;;;;;;;2.72;2.33;;;;;;;23.00;46.42;101524.50;10529054;28;20098;-77
2023/08/11 16:41:29;;;;;;;3.25;2.30;;;;;;;22.78;46.43;101533.22;10527265;28;20422;-77
2023/08/11 16:46:31;;;;;;;5.32;2.40;;;;;;;22.72;46.46;101538.19;10509948;28;20048;-77
2023/08/11 16:51:33;;;;;;;4.30;2.55;;;;;;;22.61;48.05;101538.97;10528320;28;20047;-79
2023/08/11 16:56:36;;;;;;;4.40;2.72;;;;;;;22.50;48.71;101532.94;10527775;28;20048;-78
2023/08/11 17:01:38;;;;;;;4.82;2.95;;;;;;;22.50;48.06;101535.75;10527713;28;20033;-78
2023/08/11 17:06:40;;;;;;;4.18;2.35;;;;;;;22.47;48.63;101531.66;10513341;28;20036;-78
2023/08/11 17:11:42;;;;;;;4.97;2.80;;;;;;;22.33;49.46;101533.88;10527966;28;20417;-78
2023/08/11 17:16:45;;;;;;;11.88;2.80;;;;;;;22.14;50.37;101531.53;10509183;28;20049;-78
2023/08/11 17:21:48;;;;;;;6.05;2.90;;;;;;;22.06;50.97;101538.00;10527009;28;20040;-78
2023/08/11 17:26:51;;;;;;;4.32;2.80;;;;;;;22.14;51.06;101530.72;10509053;28;20620;-78
2023/08/11 17:31:53;;;;;;;5.20;2.67;;;;;;;22.08;51.37;101527.31;10527898;28;20036;-77
2023/08/11 17:36:55;;;;;;;3.55;3.20;;;;;;;22.12;50.46;101528.25;10534997;28;20041;-78
2023/08/11 17:42:02;;;;;;;2.88;2.38;;;;;;;22.06;51.89;101534.41;10517034;28;20555;-78
2023/08/11 17:47:05;;;;;;;7.95;3.97;;;;;;;21.89;51.83;101538.88;10516790;28;20033;-78
2023/08/11 17:52:07;;;;;;;9.25;3.15;;;;;;;21.75;51.49;101549.47;10517079;28;20048;-78
2023/08/11 17:57:10;;;;;;;3.80;2.17;;;;;;;21.76;52.68;101545.50;10534289;28;20533;-78
2023/08/11 18:02:12;;;;;;;4.55;2.97;;;;;;;21.80;52.49;101526.09;10534105;28;20044;-78
2023/08/11 18:07:14;;;;;;;5.78;2.95;;;;;;;21.78;52.64;101531.22;10530989;28;20059;-78
2023/08/11 18:12:16;;;;;;;4.70;3.15;;;;;;;21.68;52.37;101524.00;10515025;28;20045;-78
2023/08/11 18:17:19;;;;;;;5.13;3.00;;;;;;;21.75;52.71;101527.13;10514950;28;20055;-78
2023/08/11 18:22:21;;;;;;;5.20;3.10;;;;;;;21.83;52.71;101531.81;10533453;28;20052;-78
2023/08/11 18:27:23;;;;;;;4.60;2.97;;;;;;;21.92;52.32;101531.81;10533344;28;20048;-78
2023/08/11 18:32:25;;;;;;;7.78;3.20;;;;;;;21.73;52.58;101523.84;10532790;28;20383;-78
2023/08/11 18:37:27;;;;;;;7.57;3.50;;;;;;;21.65;53.48;101531.09;10532950;28;20048;-78
2023/08/11 18:42:30;;;;;;;7.70;3.50;;;;;;;21.52;53.60;101514.53;10531682;28;20047;-78
2023/08/11 18:47:33;;;;;;;4.45;3.35;;;;;;;21.51;54.09;101515.69;10530971;28;20051;-78
2023/08/11 18:52:36;;;;;;;7.20;4.22;;;;;;;21.43;53.80;101519.34;10531943;28;20059;-77
2023/08/11 18:57:38;;;;;;;9.73;4.63;;;;;;;21.48;53.83;101516.34;10530893;28;20522;-78
2023/08/11 19:02:40;;;;;;;8.02;3.67;;;;;;;21.24;54.74;101520.53;10531712;28;20044;-77
2023/08/11 19:07:42;;;;;;;9.98;4.03;;;;;;;21.26;54.27;101515.44;10500487;28;20040;-78
2023/08/11 19:12:44;;;;;;;5.93;3.65;;;;;;;21.26;54.66;101518.22;10513447;28;20426;-79
2023/08/11 19:17:47;;;;;;;8.15;4.22;;;;;;;21.26;54.80;101521.03;10513363;28;20040;-77
2023/08/11 19:22:49;;;;;;;4.82;3.28;;;;;;;21.23;55.02;101518.88;10513579;28;20051;-77
2023/08/11 19:27:51;;;;;;;8.13;4.22;;;;;;;21.13;55.48;101521.19;10515932;28;20059;-77
2023/08/11 19:32:53;;;;;;;7.05;3.70;;;;;;;21.05;55.55;101514.47;10529364;28;20510;-78
2023/08/11 19:37:55;;;;;;;7.65;4.47;;;;;;;20.96;56.38;101525.63;10495923;28;20051;-77
2023/08/11 19:42:57;;;;;;;11.77;4.50;;;;;;;20.89;56.38;101516.13;10530176;28;20049;-77
2023/08/11 19:48:00;;;;;;;8.73;4.22;;;;;;;20.91;56.59;101509.06;10530089;28;20047;-77
2023/08/11 19:53:02;;;;;;;10.90;4.55;;;;;;;21.11;55.97;101507.56;10511207;28;20052;-77
2023/08/11 19:58:04;;;;;;;8.35;4.22;;;;;;;21.04;56.11;101504.47;10548682;28;20055;-77
2023/08/11 20:03:09;;;;;;;7.88;3.63;;;;;;;20.99;56.22;101501.81;10514806;28;20391;-79
2023/08/11 20:08:13;;;;;;;8.43;3.63;;;;;;;21.00;56.29;101486.72;10532528;28;20037;-79
2023/08/11 20:13:16;;;;;;;10.02;3.88;;;;;;;20.91;56.20;101485.94;10528712;28;20380;-78
2023/08/11 20:18:19;;;;;;;14.82;4.25;;;;;;;20.78;57.04;101471.00;10528455;28;20059;-78
2023/08/11 20:23:21;;;;;;;6.47;4.75;;;;;;;20.82;57.37;101465.59;10511186;28;20040;-78
2023/08/11 20:28:25;;;;;;;9.23;4.70;;;;;;;20.50;57.95;101464.97;10510634;28;20040;-78
2023/08/11 20:33:27;;;;;;;5.22;3.45;;;;;;;20.44;58.84;101464.28;10527943;28;20055;-78
2023/08/11 20:38:29;;;;;;;6.15;3.92;;;;;;;20.39;58.22;101470.00;10511876;28;20040;-78
2023/08/11 20:43:32;;;;;;;10.15;4.07;;;;;;;20.34;58.90;101461.81;10476774;28;20037;-78
2023/08/11 20:48:34;;;;;;;4.00;2.95;;;;;;;20.13;58.12;101469.16;10510003;28;20498;-78
2023/08/11 20:53:37;;;;;;;6.18;3.10;;;;;;;20.20;57.40;101463.09;10528059;28;20045;-78
2023/08/11 20:58:39;;;;;;;3.72;2.45;;;;;;;20.06;56.10;101466.84;10527487;28;20048;-78
2023/08/11 21:03:41;;;;;;;4.32;2.67;;;;;;;20.07;55.37;101462.91;10530919;28;20036;-78
2023/08/11 21:08:45;;;;;;;4.15;2.47;;;;;;;19.56;55.27;101464.41;10509143;28;20052;-78
2023/08/11 21:13:48;;;;;;;4.35;2.42;;;;;;;19.40;56.76;101463.16;10509691;28;20052;-78
2023/08/11 21:18:50;;;;;;;2.92;2.15;;;;;;;19.37;56.77;101463.00;10509292;28;20040;-78
2023/08/11 21:23:52;;;;;;;2.88;1.80;;;;;;;19.36;57.98;101462.19;10527656;28;20088;-78
2023/08/11 21:28:54;;;;;;;2.63;2.28;;;;;;;18.65;60.84;101455.69;10492977;28;20517;-78
2023/08/11 21:34:05;;;;;;;3.53;2.33;;;;;;;18.06;64.58;101472.31;10526829;28;20044;-78
2023/08/11 21:39:07;;;;;;;3.90;2.35;;;;;;;17.99;65.66;101466.34;10527133;28;20390;-78
2023/08/11 21:44:09;;;;;;;4.72;2.67;;;;;;;17.65;68.40;101460.38;10492565;28;20055;-78
2023/08/11 21:49:12;;;;;;;2.88;1.90;;;;;;;17.75;68.06;101461.03;10525990;28;20538;-78
2023/08/11 21:54:14;;;;;;;3.90;2.00;;;;;;;17.80;68.04;101434.28;10492311;28;20379;-78
2023/08/11 21:59:16;;;;;;;2.80;2.00;;;;;;;17.75;68.49;101443.56;10508256;28;20060;-78
2023/08/11 22:04:18;;;;;;;3.22;2.15;;;;;;;17.83;67.86;101439.22;10526109;28;20044;-78
2023/08/11 22:09:20;;;;;;;3.63;2.28;;;;;;;17.73;67.72;101440.28;10526656;28;20047;-78
2023/08/11 22:14:23;;;;;;;4.28;2.13;;;;;;;18.19;66.42;101434.50;10526061;28;20055;-78
2023/08/11 22:19:25;;;;;;;5.70;2.40;;;;;;;18.32;66.16;101436.44;10510669;28;20040;-78
2023/08/11 22:24:27;;;;;;;6.85;2.20;;;;;;;18.45;65.35;101436.69;10533577;28;20485;-78
2023/08/11 22:29:29;;;;;;;3.13;2.20;;;;;;;18.65;65.04;101420.38;10515618;28;20410;-78
2023/08/11 22:34:31;;;;;;;4.38;2.10;;;;;;;18.64;64.46;101423.47;10498436;28;20052;-78
2023/08/11 22:39:34;;;;;;;3.72;2.25;;;;;;;18.38;65.48;101417.66;10516157;28;20417;-78
2023/08/11 22:44:36;;;;;;;3.72;2.28;;;;;;;18.68;64.96;101414.16;10531237;28;20060;-78
2023/08/11 22:49:38;;;;;;;4.78;2.58;;;;;;;18.26;66.86;101420.22;10513953;28;20387;-78
2023/08/11 22:54:40;;;;;;;5.13;2.30;;;;;;;18.09;67.66;101404.22;10532019;28;20047;-78
2023/08/11 22:59:43;;;;;;;3.40;2.10;;;;;;;18.34;67.31;101420.25;10531864;28;20049;-78
2023/08/11 23:04:45;;;;;;;3.53;2.08;;;;;;;18.24;67.37;101434.41;10518026;28;20041;-78
2023/08/11 23:09:47;;;;;;;3.50;2.30;;;;;;;18.91;65.24;101412.19;10531316;28;20418;-78